sensor_id;sensor_type;location;lat;lon;timestamp;P1;durP1;ratioP1;P2;durP2;ratioP2
54328;SDS011;40710;51.120;13.136;2022-12-11T00:01:57;43.70;;;40.09;;
54328;SDS011;40710;51.120;13.136;2022-12-11T00:04:22;43.81;;;40.43;;
54328;SDS011;40710;51.120;13.136;2022-12-11T00:06:47;43.88;;;40.24;;
54328;SDS011;40710;51.120;13.136;2022-12-11T00:09:15;43.70;;;40.51;;
54328;SDS011;40710;51.120;13.136;2022-12-11T00:11:41;43.90;;;40.47;;
54328;SDS011;40710;51.120;13.136;2022-12-11T00:14:06;44.53;;;41.43;;
54328;SDS011;40710;51.120;13.136;2022-12-11T00:16:30;44.26;;;40.89;;
54328;SDS011;40710;51.120;13.136;2022-12-11T00:18:55;43.95;;;40.66;;
54328;SDS011;40710;51.120;13.136;2022-12-11T00:21:19;44.72;;;40.89;;
54328;SDS011;40710;51.120;13.136;2022-12-11T00:23:44;44.74;;;41.36;;
54328;SDS011;40710;51.120;13.136;2022-12-11T00:26:11;45.38;;;41.95;;
54328;SDS011;40710;51.120;13.136;2022-12-11T00:28:38;44.62;;;41.11;;
54328;SDS011;40710;51.120;13.136;2022-12-11T00:31:07;44.48;;;41.22;;
54328;SDS011;40710;51.120;13.136;2022-12-11T00:33:35;43.01;;;40.36;;
54328;SDS011;40710;51.120;13.136;2022-12-11T00:36:00;42.55;;;39.65;;
54328;SDS011;40710;51.120;13.136;2022-12-11T00:38:24;43.57;;;40.55;;
54328;SDS011;40710;51.120;13.136;2022-12-11T00:40:49;42.83;;;39.67;;
54328;SDS011;40710;51.120;13.136;2022-12-11T00:43:15;42.94;;;40.09;;
54328;SDS011;40710;51.120;13.136;2022-12-11T00:45:40;43.97;;;41.07;;
54328;SDS011;40710;51.120;13.136;2022-12-11T00:48:06;43.59;;;40.38;;
54328;SDS011;40710;51.120;13.136;2022-12-11T00:50:32;43.07;;;39.98;;
54328;SDS011;40710;51.120;13.136;2022-12-11T00:52:57;42.65;;;39.65;;
54328;SDS011;40710;51.120;13.136;2022-12-11T00:55:22;43.29;;;40.15;;
54328;SDS011;40710;51.120;13.136;2022-12-11T00:57:46;42.06;;;39.32;;
54328;SDS011;40710;51.120;13.136;2022-12-11T01:00:14;42.53;;;39.62;;
54328;SDS011;40710;51.120;13.136;2022-12-11T01:02:38;42.26;;;39.23;;
54328;SDS011;40710;51.120;13.136;2022-12-11T01:05:03;43.16;;;39.72;;
54328;SDS011;40710;51.120;13.136;2022-12-11T01:07:28;41.86;;;38.68;;
54328;SDS011;40710;51.120;13.136;2022-12-11T01:09:52;41.68;;;38.82;;
54328;SDS011;40710;51.120;13.136;2022-12-11T01:12:36;42.15;;;38.85;;
54328;SDS011;40710;51.120;13.136;2022-12-11T01:15:00;42.20;;;38.48;;
54328;SDS011;40710;51.120;13.136;2022-12-11T01:17:25;41.23;;;37.94;;
54328;SDS011;40710;51.120;13.136;2022-12-11T01:19:52;40.01;;;37.25;;
54328;SDS011;40710;51.120;13.136;2022-12-11T01:22:17;42.01;;;38.20;;
54328;SDS011;40710;51.120;13.136;2022-12-11T01:24:41;40.39;;;37.41;;
54328;SDS011;40710;51.120;13.136;2022-12-11T01:27:06;40.46;;;37.77;;
54328;SDS011;40710;51.120;13.136;2022-12-11T01:29:31;39.78;;;37.06;;
54328;SDS011;40710;51.120;13.136;2022-12-11T01:31:56;40.27;;;37.22;;
54328;SDS011;40710;51.120;13.136;2022-12-11T01:34:20;39.81;;;37.22;;
54328;SDS011;40710;51.120;13.136;2022-12-11T01:36:45;38.18;;;36.00;;
54328;SDS011;40710;51.120;13.136;2022-12-11T01:39:10;38.89;;;36.16;;
54328;SDS011;40710;51.120;13.136;2022-12-11T01:41:34;39.58;;;36.52;;
54328;SDS011;40710;51.120;13.136;2022-12-11T01:46:38;37.15;;;34.91;;
54328;SDS011;40710;51.120;13.136;2022-12-11T01:49:05;36.33;;;33.84;;
54328;SDS011;40710;51.120;13.136;2022-12-11T01:51:36;35.72;;;33.44;;
54328;SDS011;40710;51.120;13.136;2022-12-11T01:54:16;35.93;;;33.66;;
54328;SDS011;40710;51.120;13.136;2022-12-11T01:56:44;36.37;;;34.08;;
54328;SDS011;40710;51.120;13.136;2022-12-11T01:59:13;35.88;;;33.65;;
54328;SDS011;40710;51.120;13.136;2022-12-11T02:01:44;34.93;;;32.79;;
54328;SDS011;40710;51.120;13.136;2022-12-11T02:04:18;35.08;;;32.67;;
54328;SDS011;40710;51.120;13.136;2022-12-11T02:06:44;34.16;;;32.09;;
54328;SDS011;40710;51.120;13.136;2022-12-11T02:09:15;33.79;;;31.88;;
54328;SDS011;40710;51.120;13.136;2022-12-11T02:11:51;34.41;;;32.23;;
54328;SDS011;40710;51.120;13.136;2022-12-11T02:17:32;39.15;;;36.44;;
54328;SDS011;40710;51.120;13.136;2022-12-11T02:20:24;35.17;;;32.91;;
54328;SDS011;40710;51.120;13.136;2022-12-11T02:23:05;35.04;;;32.76;;
54328;SDS011;40710;51.120;13.136;2022-12-11T02:28:49;36.02;;;33.89;;
54328;SDS011;40710;51.120;13.136;2022-12-11T02:36:28;38.97;;;36.18;;
54328;SDS011;40710;51.120;13.136;2022-12-11T02:38:58;40.25;;;37.73;;
54328;SDS011;40710;51.120;13.136;2022-12-11T02:41:26;44.53;;;41.15;;
54328;SDS011;40710;51.120;13.136;2022-12-11T02:43:54;40.30;;;37.08;;
54328;SDS011;40710;51.120;13.136;2022-12-11T02:46:21;40.05;;;36.95;;
54328;SDS011;40710;51.120;13.136;2022-12-11T02:48:49;39.29;;;36.60;;
54328;SDS011;40710;51.120;13.136;2022-12-11T02:51:17;39.89;;;36.91;;
54328;SDS011;40710;51.120;13.136;2022-12-11T02:53:47;38.49;;;35.83;;
54328;SDS011;40710;51.120;13.136;2022-12-11T02:56:20;38.51;;;35.94;;
54328;SDS011;40710;51.120;13.136;2022-12-11T02:59:08;39.41;;;36.17;;
54328;SDS011;40710;51.120;13.136;2022-12-11T03:01:39;38.21;;;35.90;;
54328;SDS011;40710;51.120;13.136;2022-12-11T03:04:03;38.58;;;35.84;;
54328;SDS011;40710;51.120;13.136;2022-12-11T03:06:31;37.94;;;35.46;;
54328;SDS011;40710;51.120;13.136;2022-12-11T03:09:00;36.57;;;34.55;;
54328;SDS011;40710;51.120;13.136;2022-12-11T03:11:24;37.33;;;34.82;;
54328;SDS011;40710;51.120;13.136;2022-12-11T03:13:49;36.17;;;33.41;;
54328;SDS011;40710;51.120;13.136;2022-12-11T03:19:17;36.95;;;34.23;;
54328;SDS011;40710;51.120;13.136;2022-12-11T03:21:51;35.07;;;32.90;;
54328;SDS011;40710;51.120;13.136;2022-12-11T03:24:35;36.75;;;34.00;;
54328;SDS011;40710;51.120;13.136;2022-12-11T03:27:18;37.70;;;34.62;;
54328;SDS011;40710;51.120;13.136;2022-12-11T03:29:55;37.77;;;34.68;;
54328;SDS011;40710;51.120;13.136;2022-12-11T03:32:24;35.66;;;33.36;;
54328;SDS011;40710;51.120;13.136;2022-12-11T03:34:54;36.09;;;33.69;;
54328;SDS011;40710;51.120;13.136;2022-12-11T03:37:27;36.73;;;33.67;;
54328;SDS011;40710;51.120;13.136;2022-12-11T03:39:58;32.68;;;30.97;;
54328;SDS011;40710;51.120;13.136;2022-12-11T03:42:33;33.67;;;31.70;;
54328;SDS011;40710;51.120;13.136;2022-12-11T03:45:00;32.81;;;30.44;;
54328;SDS011;40710;51.120;13.136;2022-12-11T03:47:28;32.65;;;30.19;;
54328;SDS011;40710;51.120;13.136;2022-12-11T03:49:54;33.27;;;30.66;;
54328;SDS011;40710;51.120;13.136;2022-12-11T03:52:23;32.64;;;30.50;;
54328;SDS011;40710;51.120;13.136;2022-12-11T03:54:51;32.64;;;30.26;;
54328;SDS011;40710;51.120;13.136;2022-12-11T03:57:19;34.22;;;31.27;;
54328;SDS011;40710;51.120;13.136;2022-12-11T03:59:50;32.15;;;29.83;;
54328;SDS011;40710;51.120;13.136;2022-12-11T04:02:15;30.02;;;28.33;;
54328;SDS011;40710;51.120;13.136;2022-12-11T04:04:40;30.66;;;28.95;;
54328;SDS011;40710;51.120;13.136;2022-12-11T04:07:05;30.20;;;28.38;;
54328;SDS011;40710;51.120;13.136;2022-12-11T04:09:31;30.32;;;28.45;;
54328;SDS011;40710;51.120;13.136;2022-12-11T04:11:56;30.50;;;28.54;;
54328;SDS011;40710;51.120;13.136;2022-12-11T04:14:20;30.49;;;28.36;;
54328;SDS011;40710;51.120;13.136;2022-12-11T04:17:03;29.57;;;27.62;;
54328;SDS011;40710;51.120;13.136;2022-12-11T04:19:29;29.65;;;27.74;;
54328;SDS011;40710;51.120;13.136;2022-12-11T04:22:13;28.21;;;26.61;;
54328;SDS011;40710;51.120;13.136;2022-12-11T04:24:59;26.19;;;24.50;;
54328;SDS011;40710;51.120;13.136;2022-12-11T04:27:25;26.17;;;24.59;;
54328;SDS011;40710;51.120;13.136;2022-12-11T04:30:11;25.09;;;23.67;;
54328;SDS011;40710;51.120;13.136;2022-12-11T04:32:38;25.46;;;23.99;;
54328;SDS011;40710;51.120;13.136;2022-12-11T04:35:04;35.01;;;32.99;;
54328;SDS011;40710;51.120;13.136;2022-12-11T04:37:30;83.03;;;76.00;;
54328;SDS011;40710;51.120;13.136;2022-12-11T04:39:54;40.44;;;37.74;;
54328;SDS011;40710;51.120;13.136;2022-12-11T04:42:19;25.43;;;23.80;;
54328;SDS011;40710;51.120;13.136;2022-12-11T04:44:44;23.94;;;22.84;;
54328;SDS011;40710;51.120;13.136;2022-12-11T04:47:08;24.16;;;22.84;;
54328;SDS011;40710;51.120;13.136;2022-12-11T04:49:33;24.29;;;22.66;;
54328;SDS011;40710;51.120;13.136;2022-12-11T04:51:57;23.82;;;22.43;;
54328;SDS011;40710;51.120;13.136;2022-12-11T04:54:23;23.93;;;22.53;;
54328;SDS011;40710;51.120;13.136;2022-12-11T04:56:48;23.52;;;22.24;;
54328;SDS011;40710;51.120;13.136;2022-12-11T04:59:12;23.30;;;21.77;;
54328;SDS011;40710;51.120;13.136;2022-12-11T05:01:37;22.79;;;21.56;;
54328;SDS011;40710;51.120;13.136;2022-12-11T05:04:01;22.97;;;21.78;;
54328;SDS011;40710;51.120;13.136;2022-12-11T05:06:26;23.32;;;21.93;;
54328;SDS011;40710;51.120;13.136;2022-12-11T05:08:51;23.65;;;22.13;;
54328;SDS011;40710;51.120;13.136;2022-12-11T05:11:16;23.39;;;22.17;;
54328;SDS011;40710;51.120;13.136;2022-12-11T05:13:41;28.71;;;26.75;;
54328;SDS011;40710;51.120;13.136;2022-12-11T05:16:08;24.75;;;23.10;;
54328;SDS011;40710;51.120;13.136;2022-12-11T05:18:33;23.39;;;21.76;;
54328;SDS011;40710;51.120;13.136;2022-12-11T05:20:59;22.64;;;21.01;;
54328;SDS011;40710;51.120;13.136;2022-12-11T05:23:26;21.75;;;20.29;;
54328;SDS011;40710;51.120;13.136;2022-12-11T05:25:56;21.64;;;20.22;;
54328;SDS011;40710;51.120;13.136;2022-12-11T05:28:22;22.23;;;20.84;;
54328;SDS011;40710;51.120;13.136;2022-12-11T05:30:53;22.06;;;20.73;;
54328;SDS011;40710;51.120;13.136;2022-12-11T05:33:19;21.73;;;20.40;;
54328;SDS011;40710;51.120;13.136;2022-12-11T05:35:46;22.05;;;20.47;;
54328;SDS011;40710;51.120;13.136;2022-12-11T05:38:11;22.92;;;21.35;;
54328;SDS011;40710;51.120;13.136;2022-12-11T05:40:36;26.89;;;24.39;;
54328;SDS011;40710;51.120;13.136;2022-12-11T05:43:00;24.74;;;22.81;;
54328;SDS011;40710;51.120;13.136;2022-12-11T05:45:25;23.75;;;22.30;;
54328;SDS011;40710;51.120;13.136;2022-12-11T05:47:49;27.28;;;25.16;;
54328;SDS011;40710;51.120;13.136;2022-12-11T05:50:14;23.43;;;21.75;;
54328;SDS011;40710;51.120;13.136;2022-12-11T05:52:38;23.16;;;21.35;;
54328;SDS011;40710;51.120;13.136;2022-12-11T05:55:03;22.48;;;21.02;;
54328;SDS011;40710;51.120;13.136;2022-12-11T05:57:28;22.22;;;20.69;;
54328;SDS011;40710;51.120;13.136;2022-12-11T05:59:53;22.03;;;20.35;;
54328;SDS011;40710;51.120;13.136;2022-12-11T06:02:17;22.80;;;20.67;;
54328;SDS011;40710;51.120;13.136;2022-12-11T06:04:42;21.30;;;19.67;;
54328;SDS011;40710;51.120;13.136;2022-12-11T06:07:06;31.28;;;28.73;;
54328;SDS011;40710;51.120;13.136;2022-12-11T06:09:31;22.89;;;21.29;;
54328;SDS011;40710;51.120;13.136;2022-12-11T06:11:56;21.22;;;19.74;;
54328;SDS011;40710;51.120;13.136;2022-12-11T06:14:20;21.37;;;19.75;;
54328;SDS011;40710;51.120;13.136;2022-12-11T06:16:45;20.80;;;19.28;;
54328;SDS011;40710;51.120;13.136;2022-12-11T06:19:13;20.60;;;19.00;;
54328;SDS011;40710;51.120;13.136;2022-12-11T06:21:40;19.95;;;18.39;;
54328;SDS011;40710;51.120;13.136;2022-12-11T06:24:04;19.38;;;17.82;;
54328;SDS011;40710;51.120;13.136;2022-12-11T06:26:29;20.10;;;18.60;;
54328;SDS011;40710;51.120;13.136;2022-12-11T06:28:55;19.35;;;18.19;;
54328;SDS011;40710;51.120;13.136;2022-12-11T06:31:19;19.02;;;17.90;;
54328;SDS011;40710;51.120;13.136;2022-12-11T06:33:44;19.08;;;17.80;;
54328;SDS011;40710;51.120;13.136;2022-12-11T06:36:10;19.96;;;18.24;;
54328;SDS011;40710;51.120;13.136;2022-12-11T06:38:37;19.97;;;18.45;;
54328;SDS011;40710;51.120;13.136;2022-12-11T06:41:03;19.40;;;17.85;;
54328;SDS011;40710;51.120;13.136;2022-12-11T06:43:30;18.69;;;17.21;;
54328;SDS011;40710;51.120;13.136;2022-12-11T06:45:55;19.18;;;17.59;;
54328;SDS011;40710;51.120;13.136;2022-12-11T06:48:19;19.89;;;18.13;;
54328;SDS011;40710;51.120;13.136;2022-12-11T06:50:44;19.39;;;17.92;;
54328;SDS011;40710;51.120;13.136;2022-12-11T06:53:10;19.63;;;18.28;;
54328;SDS011;40710;51.120;13.136;2022-12-11T06:55:35;19.83;;;18.41;;
54328;SDS011;40710;51.120;13.136;2022-12-11T06:58:00;19.07;;;17.74;;
54328;SDS011;40710;51.120;13.136;2022-12-11T07:00:25;18.82;;;17.60;;
54328;SDS011;40710;51.120;13.136;2022-12-11T07:02:50;19.30;;;17.85;;
54328;SDS011;40710;51.120;13.136;2022-12-11T07:05:15;18.91;;;17.87;;
54328;SDS011;40710;51.120;13.136;2022-12-11T07:07:39;50.86;;;46.41;;
54328;SDS011;40710;51.120;13.136;2022-12-11T07:10:04;52.12;;;47.22;;
54328;SDS011;40710;51.120;13.136;2022-12-11T07:12:29;22.46;;;20.50;;
54328;SDS011;40710;51.120;13.136;2022-12-11T07:14:53;19.94;;;18.54;;
54328;SDS011;40710;51.120;13.136;2022-12-11T07:17:18;20.00;;;18.53;;
54328;SDS011;40710;51.120;13.136;2022-12-11T07:19:43;20.37;;;18.79;;
54328;SDS011;40710;51.120;13.136;2022-12-11T07:22:07;19.49;;;17.97;;
54328;SDS011;40710;51.120;13.136;2022-12-11T07:24:32;19.88;;;18.32;;
54328;SDS011;40710;51.120;13.136;2022-12-11T07:26:57;19.78;;;18.33;;
54328;SDS011;40710;51.120;13.136;2022-12-11T07:29:21;18.86;;;17.56;;
54328;SDS011;40710;51.120;13.136;2022-12-11T07:31:46;19.94;;;18.57;;
54328;SDS011;40710;51.120;13.136;2022-12-11T07:34:12;20.35;;;18.94;;
54328;SDS011;40710;51.120;13.136;2022-12-11T07:36:37;19.85;;;18.49;;
54328;SDS011;40710;51.120;13.136;2022-12-11T07:39:01;20.12;;;18.62;;
54328;SDS011;40710;51.120;13.136;2022-12-11T07:41:26;19.86;;;18.57;;
54328;SDS011;40710;51.120;13.136;2022-12-11T07:43:52;21.79;;;20.39;;
54328;SDS011;40710;51.120;13.136;2022-12-11T07:46:18;20.33;;;19.04;;
54328;SDS011;40710;51.120;13.136;2022-12-11T07:48:45;20.50;;;19.07;;
54328;SDS011;40710;51.120;13.136;2022-12-11T07:51:18;19.55;;;18.02;;
54328;SDS011;40710;51.120;13.136;2022-12-11T07:53:49;19.28;;;18.17;;
54328;SDS011;40710;51.120;13.136;2022-12-11T07:56:14;20.31;;;18.67;;
54328;SDS011;40710;51.120;13.136;2022-12-11T07:58:41;20.50;;;18.67;;
54328;SDS011;40710;51.120;13.136;2022-12-11T08:01:13;20.34;;;18.48;;
54328;SDS011;40710;51.120;13.136;2022-12-11T08:03:42;19.53;;;18.04;;
54328;SDS011;40710;51.120;13.136;2022-12-11T08:06:06;18.39;;;17.04;;
54328;SDS011;40710;51.120;13.136;2022-12-11T08:08:32;19.44;;;17.92;;
54328;SDS011;40710;51.120;13.136;2022-12-11T08:10:59;19.51;;;17.94;;
54328;SDS011;40710;51.120;13.136;2022-12-11T08:13:24;19.54;;;18.00;;
54328;SDS011;40710;51.120;13.136;2022-12-11T08:15:49;19.31;;;18.07;;
54328;SDS011;40710;51.120;13.136;2022-12-11T08:18:14;19.28;;;18.13;;
54328;SDS011;40710;51.120;13.136;2022-12-11T08:20:39;19.89;;;18.44;;
54328;SDS011;40710;51.120;13.136;2022-12-11T08:23:03;19.87;;;18.15;;
54328;SDS011;40710;51.120;13.136;2022-12-11T08:25:28;53.20;;;48.67;;
54328;SDS011;40710;51.120;13.136;2022-12-11T08:27:53;59.36;;;54.06;;
54328;SDS011;40710;51.120;13.136;2022-12-11T08:30:17;23.22;;;21.25;;
54328;SDS011;40710;51.120;13.136;2022-12-11T08:32:42;20.43;;;18.80;;
54328;SDS011;40710;51.120;13.136;2022-12-11T08:35:06;19.88;;;18.74;;
54328;SDS011;40710;51.120;13.136;2022-12-11T08:37:32;22.08;;;20.53;;
54328;SDS011;40710;51.120;13.136;2022-12-11T08:39:58;19.71;;;18.30;;
54328;SDS011;40710;51.120;13.136;2022-12-11T08:42:22;17.95;;;16.76;;
54328;SDS011;40710;51.120;13.136;2022-12-11T08:44:47;18.46;;;17.41;;
54328;SDS011;40710;51.120;13.136;2022-12-11T08:47:12;18.69;;;17.50;;
54328;SDS011;40710;51.120;13.136;2022-12-11T08:49:38;18.24;;;17.01;;
54328;SDS011;40710;51.120;13.136;2022-12-11T08:52:03;18.17;;;16.84;;
54328;SDS011;40710;51.120;13.136;2022-12-11T08:54:28;17.76;;;16.52;;
54328;SDS011;40710;51.120;13.136;2022-12-11T08:56:53;18.67;;;17.28;;
54328;SDS011;40710;51.120;13.136;2022-12-11T08:59:17;19.78;;;18.19;;
54328;SDS011;40710;51.120;13.136;2022-12-11T09:01:42;18.59;;;17.41;;
54328;SDS011;40710;51.120;13.136;2022-12-11T09:04:06;20.53;;;19.39;;
54328;SDS011;40710;51.120;13.136;2022-12-11T09:06:31;20.61;;;19.34;;
54328;SDS011;40710;51.120;13.136;2022-12-11T09:08:57;19.16;;;17.99;;
54328;SDS011;40710;51.120;13.136;2022-12-11T09:11:24;19.38;;;17.98;;
54328;SDS011;40710;51.120;13.136;2022-12-11T09:13:51;19.40;;;17.92;;
54328;SDS011;40710;51.120;13.136;2022-12-11T09:16:18;19.14;;;18.01;;
54328;SDS011;40710;51.120;13.136;2022-12-11T09:18:44;19.62;;;18.30;;
54328;SDS011;40710;51.120;13.136;2022-12-11T09:21:12;18.03;;;17.21;;
54328;SDS011;40710;51.120;13.136;2022-12-11T09:23:38;17.89;;;17.10;;
54328;SDS011;40710;51.120;13.136;2022-12-11T09:26:05;19.21;;;18.01;;
54328;SDS011;40710;51.120;13.136;2022-12-11T09:28:31;18.92;;;17.73;;
54328;SDS011;40710;51.120;13.136;2022-12-11T09:30:56;17.25;;;16.53;;
54328;SDS011;40710;51.120;13.136;2022-12-11T09:33:20;17.23;;;16.26;;
54328;SDS011;40710;51.120;13.136;2022-12-11T09:35:45;18.39;;;17.11;;
54328;SDS011;40710;51.120;13.136;2022-12-11T09:38:09;18.42;;;17.07;;
54328;SDS011;40710;51.120;13.136;2022-12-11T09:40:38;18.76;;;17.11;;
54328;SDS011;40710;51.120;13.136;2022-12-11T09:43:12;18.45;;;17.07;;
54328;SDS011;40710;51.120;13.136;2022-12-11T09:45:51;17.60;;;16.48;;
54328;SDS011;40710;51.120;13.136;2022-12-11T09:48:19;17.90;;;16.58;;
54328;SDS011;40710;51.120;13.136;2022-12-11T09:50:49;17.24;;;16.17;;
54328;SDS011;40710;51.120;13.136;2022-12-11T09:53:24;17.24;;;16.10;;
54328;SDS011;40710;51.120;13.136;2022-12-11T09:55:54;18.33;;;17.29;;
54328;SDS011;40710;51.120;13.136;2022-12-11T10:01:30;18.91;;;17.41;;
54328;SDS011;40710;51.120;13.136;2022-12-11T10:12:23;17.39;;;16.30;;
54328;SDS011;40710;51.120;13.136;2022-12-11T10:15:33;17.02;;;16.13;;
54328;SDS011;40710;51.120;13.136;2022-12-11T10:18:11;17.36;;;16.24;;
54328;SDS011;40710;51.120;13.136;2022-12-11T10:20:41;17.56;;;16.49;;
54328;SDS011;40710;51.120;13.136;2022-12-11T10:23:09;18.66;;;17.50;;
54328;SDS011;40710;51.120;13.136;2022-12-11T10:25:44;22.64;;;20.98;;
54328;SDS011;40710;51.120;13.136;2022-12-11T10:28:33;22.97;;;21.48;;
54328;SDS011;40710;51.120;13.136;2022-12-11T10:34:02;19.25;;;18.21;;
54328;SDS011;40710;51.120;13.136;2022-12-11T10:36:35;18.33;;;17.34;;
54328;SDS011;40710;51.120;13.136;2022-12-11T10:39:02;18.27;;;17.22;;
54328;SDS011;40710;51.120;13.136;2022-12-11T10:41:39;19.28;;;18.29;;
54328;SDS011;40710;51.120;13.136;2022-12-11T10:44:17;18.84;;;17.56;;
54328;SDS011;40710;51.120;13.136;2022-12-11T10:46:44;18.48;;;17.49;;
54328;SDS011;40710;51.120;13.136;2022-12-11T10:49:21;17.56;;;16.87;;
54328;SDS011;40710;51.120;13.136;2022-12-11T10:51:51;17.92;;;16.99;;
54328;SDS011;40710;51.120;13.136;2022-12-11T10:54:35;18.98;;;17.70;;
54328;SDS011;40710;51.120;13.136;2022-12-11T10:57:03;19.54;;;18.14;;
54328;SDS011;40710;51.120;13.136;2022-12-11T10:59:33;19.03;;;17.71;;
54328;SDS011;40710;51.120;13.136;2022-12-11T11:02:04;19.92;;;18.60;;
54328;SDS011;40710;51.120;13.136;2022-12-11T11:04:59;18.17;;;17.16;;
54328;SDS011;40710;51.120;13.136;2022-12-11T11:07:35;17.83;;;17.11;;
54328;SDS011;40710;51.120;13.136;2022-12-11T11:10:18;18.06;;;17.17;;
54328;SDS011;40710;51.120;13.136;2022-12-11T11:12:44;18.80;;;17.48;;
54328;SDS011;40710;51.120;13.136;2022-12-11T11:15:15;18.38;;;17.22;;
54328;SDS011;40710;51.120;13.136;2022-12-11T11:17:52;18.92;;;17.53;;
54328;SDS011;40710;51.120;13.136;2022-12-11T11:20:21;18.55;;;17.37;;
54328;SDS011;40710;51.120;13.136;2022-12-11T11:22:49;18.83;;;17.72;;
54328;SDS011;40710;51.120;13.136;2022-12-11T11:25:18;18.58;;;17.44;;
54328;SDS011;40710;51.120;13.136;2022-12-11T11:27:55;18.66;;;17.67;;
54328;SDS011;40710;51.120;13.136;2022-12-11T11:30:30;19.43;;;18.22;;
54328;SDS011;40710;51.120;13.136;2022-12-11T11:33:01;18.92;;;17.81;;
54328;SDS011;40710;51.120;13.136;2022-12-11T11:35:34;19.53;;;18.05;;
54328;SDS011;40710;51.120;13.136;2022-12-11T11:40:24;18.81;;;17.53;;
54328;SDS011;40710;51.120;13.136;2022-12-11T11:45:28;19.01;;;17.87;;
54328;SDS011;40710;51.120;13.136;2022-12-11T11:50:37;18.59;;;17.60;;
54328;SDS011;40710;51.120;13.136;2022-12-11T11:53:21;18.98;;;17.86;;
54328;SDS011;40710;51.120;13.136;2022-12-11T12:01:58;16.84;;;15.96;;
54328;SDS011;40710;51.120;13.136;2022-12-11T12:04:32;17.04;;;16.23;;
54328;SDS011;40710;51.120;13.136;2022-12-11T12:07:06;18.07;;;17.36;;
54328;SDS011;40710;51.120;13.136;2022-12-11T12:13:00;19.23;;;18.32;;
54328;SDS011;40710;51.120;13.136;2022-12-11T12:15:47;18.52;;;17.61;;
54328;SDS011;40710;51.120;13.136;2022-12-11T12:18:33;17.98;;;16.94;;
54328;SDS011;40710;51.120;13.136;2022-12-11T12:21:15;18.63;;;17.65;;
54328;SDS011;40710;51.120;13.136;2022-12-11T12:23:54;17.59;;;16.56;;
54328;SDS011;40710;51.120;13.136;2022-12-11T12:26:32;17.05;;;16.26;;
54328;SDS011;40710;51.120;13.136;2022-12-11T12:29:18;17.47;;;16.70;;
54328;SDS011;40710;51.120;13.136;2022-12-11T12:32:22;16.20;;;15.67;;
54328;SDS011;40710;51.120;13.136;2022-12-11T12:37:42;16.52;;;15.92;;
54328;SDS011;40710;51.120;13.136;2022-12-11T12:40:34;18.40;;;17.51;;
54328;SDS011;40710;51.120;13.136;2022-12-11T12:43:25;25.89;;;24.48;;
54328;SDS011;40710;51.120;13.136;2022-12-11T12:46:15;17.56;;;16.89;;
54328;SDS011;40710;51.120;13.136;2022-12-11T12:48:57;50.38;;;46.99;;
54328;SDS011;40710;51.120;13.136;2022-12-11T12:51:24;37.17;;;34.68;;
54328;SDS011;40710;51.120;13.136;2022-12-11T12:54:00;16.57;;;15.88;;
54328;SDS011;40710;51.120;13.136;2022-12-11T12:56:30;16.91;;;16.32;;
54328;SDS011;40710;51.120;13.136;2022-12-11T12:58:56;18.24;;;17.31;;
54328;SDS011;40710;51.120;13.136;2022-12-11T13:01:22;18.12;;;17.24;;
54328;SDS011;40710;51.120;13.136;2022-12-11T13:06:28;16.49;;;15.75;;
54328;SDS011;40710;51.120;13.136;2022-12-11T13:08:56;15.71;;;15.16;;
54328;SDS011;40710;51.120;13.136;2022-12-11T13:11:29;16.22;;;15.48;;
54328;SDS011;40710;51.120;13.136;2022-12-11T13:14:02;19.83;;;18.66;;
54328;SDS011;40710;51.120;13.136;2022-12-11T13:16:36;22.84;;;21.42;;
54328;SDS011;40710;51.120;13.136;2022-12-11T13:19:14;17.15;;;16.45;;
54328;SDS011;40710;51.120;13.136;2022-12-11T13:24:44;17.70;;;16.73;;
54328;SDS011;40710;51.120;13.136;2022-12-11T13:27:39;18.36;;;17.60;;
54328;SDS011;40710;51.120;13.136;2022-12-11T13:32:51;16.16;;;15.49;;
54328;SDS011;40710;51.120;13.136;2022-12-11T13:35:26;15.99;;;15.42;;
54328;SDS011;40710;51.120;13.136;2022-12-11T13:37:52;15.84;;;15.14;;
54328;SDS011;40710;51.120;13.136;2022-12-11T13:40:25;15.76;;;15.22;;
54328;SDS011;40710;51.120;13.136;2022-12-11T13:42:59;16.65;;;16.02;;
54328;SDS011;40710;51.120;13.136;2022-12-11T13:45:31;16.25;;;15.44;;
54328;SDS011;40710;51.120;13.136;2022-12-11T13:48:00;17.86;;;17.07;;
54328;SDS011;40710;51.120;13.136;2022-12-11T13:50:27;38.66;;;36.25;;
54328;SDS011;40710;51.120;13.136;2022-12-11T13:52:55;20.10;;;19.13;;
54328;SDS011;40710;51.120;13.136;2022-12-11T13:55:27;17.29;;;16.60;;
54328;SDS011;40710;51.120;13.136;2022-12-11T13:57:56;16.74;;;16.09;;
54328;SDS011;40710;51.120;13.136;2022-12-11T14:00:23;16.15;;;15.59;;
54328;SDS011;40710;51.120;13.136;2022-12-11T14:02:58;16.50;;;15.76;;
54328;SDS011;40710;51.120;13.136;2022-12-11T14:05:30;15.50;;;14.87;;
54328;SDS011;40710;51.120;13.136;2022-12-11T14:07:58;15.87;;;15.37;;
54328;SDS011;40710;51.120;13.136;2022-12-11T14:10:31;17.31;;;16.71;;
54328;SDS011;40710;51.120;13.136;2022-12-11T14:15:27;18.32;;;17.52;;
54328;SDS011;40710;51.120;13.136;2022-12-11T14:17:55;17.85;;;17.10;;
54328;SDS011;40710;51.120;13.136;2022-12-11T14:20:23;18.64;;;17.99;;
54328;SDS011;40710;51.120;13.136;2022-12-11T14:22:51;22.04;;;21.06;;
54328;SDS011;40710;51.120;13.136;2022-12-11T14:25:20;20.58;;;19.73;;
54328;SDS011;40710;51.120;13.136;2022-12-11T14:27:51;18.87;;;18.16;;
54328;SDS011;40710;51.120;13.136;2022-12-11T14:30:21;18.62;;;18.01;;
54328;SDS011;40710;51.120;13.136;2022-12-11T14:32:49;18.40;;;17.70;;
54328;SDS011;40710;51.120;13.136;2022-12-11T14:35:23;18.73;;;18.03;;
54328;SDS011;40710;51.120;13.136;2022-12-11T14:37:51;35.43;;;33.43;;
54328;SDS011;40710;51.120;13.136;2022-12-11T14:40:17;28.16;;;26.24;;
54328;SDS011;40710;51.120;13.136;2022-12-11T14:42:58;20.03;;;19.17;;
54328;SDS011;40710;51.120;13.136;2022-12-11T14:48:00;18.84;;;18.08;;
54328;SDS011;40710;51.120;13.136;2022-12-11T14:50:52;19.31;;;18.64;;
54328;SDS011;40710;51.120;13.136;2022-12-11T14:53:23;20.35;;;19.45;;
54328;SDS011;40710;51.120;13.136;2022-12-11T14:56:07;20.84;;;20.06;;
54328;SDS011;40710;51.120;13.136;2022-12-11T14:58:42;20.53;;;19.76;;
54328;SDS011;40710;51.120;13.136;2022-12-11T15:01:27;21.47;;;20.63;;
54328;SDS011;40710;51.120;13.136;2022-12-11T15:06:44;20.90;;;19.91;;
54328;SDS011;40710;51.120;13.136;2022-12-11T15:09:23;21.46;;;20.46;;
54328;SDS011;40710;51.120;13.136;2022-12-11T15:12:05;20.80;;;20.01;;
54328;SDS011;40710;51.120;13.136;2022-12-11T15:14:32;25.72;;;24.40;;
54328;SDS011;40710;51.120;13.136;2022-12-11T15:16:57;23.83;;;22.93;;
54328;SDS011;40710;51.120;13.136;2022-12-11T15:19:31;20.13;;;19.56;;
54328;SDS011;40710;51.120;13.136;2022-12-11T15:22:02;19.97;;;19.12;;
54328;SDS011;40710;51.120;13.136;2022-12-11T15:24:35;19.37;;;18.56;;
54328;SDS011;40710;51.120;13.136;2022-12-11T15:27:04;19.59;;;18.62;;
54328;SDS011;40710;51.120;13.136;2022-12-11T15:29:39;19.55;;;18.47;;